Antoine, Arkansas
Current Conditions -  °F | °C
As of 6:56 AM on Saturday 01 Nov 2014 (Local Time) from KADF Reporting Station
Clear Clear  
Wind Chill: 36°   Ceiling: Unl
Heat Index: 36°   Visibility: 10mi
Dew Point: 27°   Wind: 3mph
Humidity: 70%   Direction: 330°NNW
Pressure: 30.46"   Gusts: NA
Location:  34.04°N, 93.42°W
Report Text: KADF 011156Z AUTO 33003KT 10SM CLR 02/M03 A3046 RMK AO2 53014 T00221027 10066 20022 SLP328
Loading
Personal Weather Stations






























Interactive Weather Map
Tropical Storm Tracking
New forecast layout! Learn more

10-Day Weather Forecast

Advertisements
Track Severe Weather on mobile